Time,TemperatureF,DewpointF,PressureIn,WindDirection,WindDirectionDegrees,WindSpeedMPH,WindSpeedGustMPH,Humidity,HourlyPrecipIn,Conditions,Clouds,dailyrainin,SoftwareType,DateUTC
2013-09-27 00:00:00,59.5,55.0,30.05,West,262,0.0,0.0,85,0.00,,,0.00,meteohub,2013-09-27 04:00:00,
2013-09-27 00:01:00,59.5,55.0,30.05,West,262,0.0,0.0,85,0.00,,,0.00,meteohub,2013-09-27 04:01:00,
2013-09-27 00:02:00,59.5,55.0,30.05,West,262,0.0,0.0,85,0.00,,,0.00,meteohub,2013-09-27 04:02:00,
2013-09-27 00:03:00,59.5,55.0,30.05,West,262,0.0,0.0,85,0.00,,,0.00,meteohub,2013-09-27 04:03:00,
2013-09-27 00:08:00,59.5,55.4,30.05,West,262,0.0,0.0,86,0.00,,,0.00,meteohub,2013-09-27 04:08:00,
2013-09-27 00:13:00,59.4,55.4,30.05,West,262,0.0,0.0,87,0.00,,,0.00,meteohub,2013-09-27 04:13:00,
2013-09-27 00:18:00,59.4,55.4,30.05,West,262,0.0,0.0,87,0.00,,,0.00,meteohub,2013-09-27 04:18:00,
2013-09-27 00:24:00,59.4,55.8,30.06,West,262,0.0,0.0,88,0.00,,,0.00,meteohub,2013-09-27 04:24:00,
2013-09-27 00:29:00,59.4,55.8,30.06,West,262,0.0,0.0,88,0.00,,,0.00,meteohub,2013-09-27 04:29:00,
2013-09-27 00:34:00,59.2,55.6,30.06,West,262,0.0,0.0,88,0.00,,,0.00,meteohub,2013-09-27 04:34:00,
2013-09-27 00:39:00,59.2,55.4,30.06,West,262,0.0,0.0,87,0.00,,,0.00,meteohub,2013-09-27 04:39:00,
2013-09-27 00:44:00,59.2,55.4,30.06,West,262,0.0,0.0,87,0.00,,,0.00,meteohub,2013-09-27 04:44:00,
2013-09-27 00:50:00,59.2,55.4,30.06,West,262,0.0,0.0,87,0.00,,,0.00,meteohub,2013-09-27 04:50:00,
2013-09-27 00:55:00,59.0,55.2,30.06,West,262,0.0,0.0,87,0.00,,,0.00,meteohub,2013-09-27 04:55:00,
2013-09-27 01:00:00,58.8,55.0,30.06,West,262,0.0,0.0,87,0.00,,,0.00,meteohub,2013-09-27 05:00:00,
2013-09-27 01:05:00,58.8,55.0,30.06,West,262,0.0,0.0,87,0.00,,,0.00,meteohub,2013-09-27 05:05:00,
2013-09-27 01:10:00,58.6,54.9,30.06,West,262,0.0,0.0,87,0.00,,,0.00,meteohub,2013-09-27 05:10:00,
2013-09-27 01:15:00,58.6,55.0,30.06,West,262,0.0,0.0,88,0.00,,,0.00,meteohub,2013-09-27 05:15:00,
2013-09-27 01:21:00,58.6,55.0,30.06,West,262,0.0,0.0,88,0.00,,,0.00,meteohub,2013-09-27 05:21:00,
2013-09-27 01:26:00,58.5,54.7,30.06,West,267,0.0,0.0,87,0.00,,,0.00,meteohub,2013-09-27 05:26:00,
2013-09-27 01:31:00,58.3,54.7,30.06,West,267,0.0,0.0,88,0.00,,,0.00,meteohub,2013-09-27 05:31:00,
2013-09-27 01:36:00,57.9,54.3,30.06,West,267,0.0,0.0,88,0.00,,,0.00,meteohub,2013-09-27 05:36:00,
2013-09-27 01:42:00,57.7,54.5,30.06,West,267,0.0,0.0,89,0.00,,,0.00,meteohub,2013-09-27 05:42:00,
2013-09-27 01:47:00,57.6,54.3,30.06,West,267,0.0,0.0,89,0.00,,,0.00,meteohub,2013-09-27 05:47:00,
2013-09-27 01:52:00,57.6,54.3,30.06,West,267,0.0,0.0,89,0.00,,,0.00,meteohub,2013-09-27 05:52:00,
2013-09-27 01:57:00,57.4,54.5,30.06,West,267,0.0,0.0,90,0.00,,,0.00,meteohub,2013-09-27 05:57:00,
2013-09-27 02:02:00,57.4,54.5,30.06,West,267,0.0,0.0,90,0.00,,,0.00,meteohub,2013-09-27 06:02:00,
2013-09-27 02:07:00,57.4,54.5,30.06,West,267,0.0,0.0,90,0.00,,,0.00,meteohub,2013-09-27 06:07:00,
2013-09-27 02:12:00,57.2,54.7,30.06,West,279,0.0,0.0,91,0.00,,,0.00,meteohub,2013-09-27 06:12:00,
2013-09-27 02:17:00,57.2,54.7,30.06,West,279,0.0,0.0,91,0.00,,,0.00,meteohub,2013-09-27 06:17:00,
2013-09-27 02:22:00,57.0,54.5,30.06,West,279,0.0,0.0,91,0.00,,,0.00,meteohub,2013-09-27 06:22:00,
2013-09-27 02:27:00,57.0,54.5,30.06,West,279,0.0,0.0,91,0.00,,,0.00,meteohub,2013-09-27 06:27:00,
2013-09-27 02:32:00,57.0,54.5,30.06,West,279,0.0,0.0,91,0.00,,,0.00,meteohub,2013-09-27 06:32:00,
2013-09-27 02:37:00,57.0,54.5,30.06,West,279,0.0,0.0,91,0.00,,,0.00,meteohub,2013-09-27 06:37:00,
2013-09-27 02:42:00,57.0,54.5,30.06,West,279,0.0,0.0,91,0.00,,,0.00,meteohub,2013-09-27 06:42:00,
2013-09-27 02:47:00,56.8,54.3,30.06,West,279,0.0,0.0,91,0.00,,,0.00,meteohub,2013-09-27 06:47:00,
2013-09-27 02:52:00,56.8,54.3,30.06,NW,306,0.0,0.0,91,0.00,,,0.00,meteohub,2013-09-27 06:52:00,
2013-09-27 02:57:00,56.8,54.5,30.06,NW,308,0.0,0.0,92,0.00,,,0.00,meteohub,2013-09-27 06:57:00,
2013-09-27 03:02:00,56.7,54.3,30.06,NW,308,0.0,0.0,92,0.00,,,0.00,meteohub,2013-09-27 07:02:00,
2013-09-27 03:07:00,56.7,54.3,30.06,NW,308,0.0,0.0,92,0.00,,,0.00,meteohub,2013-09-27 07:07:00,
2013-09-27 03:12:00,56.5,54.1,30.06,NW,308,0.0,0.0,92,0.00,,,0.00,meteohub,2013-09-27 07:12:00,
2013-09-27 03:17:00,56.5,54.1,30.07,NW,308,0.0,0.0,92,0.00,,,0.00,meteohub,2013-09-27 07:17:00,
2013-09-27 03:22:00,56.5,54.5,30.07,NW,308,0.0,0.0,93,0.00,,,0.00,meteohub,2013-09-27 07:22:00,
2013-09-27 03:27:00,56.3,54.3,30.07,NW,315,2.0,0.0,93,0.00,,,0.00,meteohub,2013-09-27 07:27:00,
2013-09-27 03:32:00,56.3,54.3,30.07,NW,321,3.0,3.0,93,0.00,,,0.00,meteohub,2013-09-27 07:32:00,
2013-09-27 03:37:00,56.3,54.3,30.07,NW,323,2.0,4.0,93,0.00,,,0.00,meteohub,2013-09-27 07:37:00,
2013-09-27 03:42:00,56.1,54.1,30.07,NW,323,3.0,4.0,93,0.00,,,0.00,meteohub,2013-09-27 07:42:00,
2013-09-27 03:47:00,56.1,54.1,30.07,NW,322,3.0,4.0,93,0.00,,,0.00,meteohub,2013-09-27 07:47:00,
2013-09-27 03:49:00,56.1,54.1,30.07,NW,323,2.0,4.0,93,0.00,,,0.00,meteohub,2013-09-27 07:49:00,
2013-09-27 03:54:00,55.9,54.0,30.07,NW,323,3.0,4.0,93,0.00,,,0.00,meteohub,2013-09-27 07:54:00,
2013-09-27 03:59:00,55.9,54.0,30.07,NW,323,2.0,4.0,93,0.00,,,0.00,meteohub,2013-09-27 07:59:00,
2013-09-27 04:05:00,55.9,54.0,30.06,NW,323,3.0,4.0,93,0.00,,,0.00,meteohub,2013-09-27 08:05:00,
2013-09-27 04:10:00,55.9,54.0,30.06,NW,323,1.0,3.0,93,0.00,,,0.00,meteohub,2013-09-27 08:10:00,
2013-09-27 04:15:00,55.9,54.3,30.06,NW,316,3.0,3.0,94,0.00,,,0.00,meteohub,2013-09-27 08:15:00,
2013-09-27 04:20:00,55.8,53.8,30.07,NW,312,2.0,4.0,93,0.00,,,0.00,meteohub,2013-09-27 08:20:00,
2013-09-27 04:25:00,55.8,53.8,30.07,NW,320,3.0,4.0,93,0.00,,,0.00,meteohub,2013-09-27 08:25:00,
2013-09-27 04:31:00,55.6,54.0,30.07,NW,313,2.0,4.0,94,0.00,,,0.00,meteohub,2013-09-27 08:31:00,
2013-09-27 04:36:00,55.6,54.0,30.07,NW,319,3.0,4.0,94,0.00,,,0.00,meteohub,2013-09-27 08:36:00,
2013-09-27 04:41:00,55.2,53.6,30.07,NW,320,3.0,4.0,94,0.00,,,0.00,meteohub,2013-09-27 08:41:00,
2013-09-27 04:46:00,55.2,53.6,30.07,NW,321,2.0,4.0,94,0.00,,,0.00,meteohub,2013-09-27 08:46:00,
2013-09-27 04:51:00,55.0,53.4,30.07,NW,321,2.0,4.0,94,0.00,,,0.00,meteohub,2013-09-27 08:51:00,
2013-09-27 04:57:00,55.0,53.4,30.07,NW,323,2.0,4.0,94,0.00,,,0.00,meteohub,2013-09-27 08:57:00,
2013-09-27 05:02:00,54.9,53.2,30.07,NW,322,2.0,4.0,94,0.00,,,0.00,meteohub,2013-09-27 09:02:00,
2013-09-27 05:07:00,54.9,53.2,30.07,NW,322,3.0,4.0,94,0.00,,,0.00,meteohub,2013-09-27 09:07:00,
2013-09-27 05:12:00,54.7,53.2,30.07,NW,322,3.0,4.0,95,0.00,,,0.00,meteohub,2013-09-27 09:12:00,
2013-09-27 05:17:00,54.7,53.2,30.07,NW,323,3.0,4.0,95,0.00,,,0.00,meteohub,2013-09-27 09:17:00,
2013-09-27 05:22:00,54.7,53.2,30.07,NW,323,3.0,4.0,95,0.00,,,0.00,meteohub,2013-09-27 09:22:00,
2013-09-27 05:27:00,54.7,53.2,30.07,NW,323,4.0,4.0,95,0.00,,,0.00,meteohub,2013-09-27 09:27:00,
2013-09-27 05:32:00,54.5,53.1,30.08,NW,321,4.0,4.0,95,0.00,,,0.00,meteohub,2013-09-27 09:32:00,
2013-09-27 05:37:00,54.5,53.1,30.08,NW,322,3.0,5.0,95,0.00,,,0.00,meteohub,2013-09-27 09:37:00,
2013-09-27 05:42:00,54.3,52.9,30.08,NW,325,3.0,5.0,95,0.00,,,0.00,meteohub,2013-09-27 09:42:00,
2013-09-27 05:47:00,54.1,52.7,30.08,NW,317,2.0,5.0,95,0.00,,,0.00,meteohub,2013-09-27 09:47:00,
2013-09-27 05:52:00,54.1,52.7,30.08,NW,316,2.0,4.0,95,0.00,,,0.00,meteohub,2013-09-27 09:52:00,
2013-09-27 05:57:00,54.0,52.5,30.08,NW,325,5.0,5.0,95,0.00,,,0.00,meteohub,2013-09-27 09:57:00,
2013-09-27 06:03:00,54.0,52.5,30.08,NW,325,3.0,5.0,95,0.00,,,0.00,meteohub,2013-09-27 10:03:00,
2013-09-27 06:08:00,54.0,52.9,30.08,NW,321,3.0,5.0,96,0.00,,,0.00,meteohub,2013-09-27 10:08:00,
2013-09-27 06:13:00,54.0,52.9,30.08,NW,318,3.0,5.0,96,0.00,,,0.00,meteohub,2013-09-27 10:13:00,
2013-09-27 06:18:00,53.8,52.7,30.09,NW,321,4.0,4.0,96,0.00,,,0.00,meteohub,2013-09-27 10:18:00,
2013-09-27 06:23:00,53.8,52.7,30.09,NW,322,4.0,4.0,96,0.00,,,0.00,meteohub,2013-09-27 10:23:00,
2013-09-27 06:29:00,53.8,52.7,30.09,NW,316,2.0,4.0,96,0.00,,,0.00,meteohub,2013-09-27 10:29:00,
2013-09-27 06:34:00,53.8,52.7,30.09,NW,321,2.0,4.0,96,0.00,,,0.00,meteohub,2013-09-27 10:34:00,
2013-09-27 06:39:00,53.8,52.7,30.10,NW,322,3.0,4.0,96,0.00,,,0.00,meteohub,2013-09-27 10:39:00,
2013-09-27 06:44:00,53.6,52.5,30.10,NW,321,2.0,4.0,96,0.00,,,0.00,meteohub,2013-09-27 10:44:00,
2013-09-27 06:50:00,53.4,52.3,30.10,NW,321,2.0,4.0,96,0.00,,,0.00,meteohub,2013-09-27 10:50:00,
2013-09-27 06:55:00,53.2,52.2,30.10,NW,321,2.0,4.0,96,0.00,,,0.00,meteohub,2013-09-27 10:55:00,
2013-09-27 07:00:00,53.2,52.2,30.10,NW,321,2.0,4.0,96,0.00,,,0.00,meteohub,2013-09-27 11:00:00,
2013-09-27 07:05:00,53.1,52.0,30.11,NW,321,3.0,4.0,96,0.00,,,0.00,meteohub,2013-09-27 11:05:00,
2013-09-27 07:10:00,53.1,52.0,30.11,NW,321,3.0,4.0,96,0.00,,,0.00,meteohub,2013-09-27 11:10:00,
2013-09-27 07:16:00,53.1,52.0,30.12,NW,322,3.0,4.0,96,0.00,,,0.00,meteohub,2013-09-27 11:16:00,
2013-09-27 07:21:00,52.9,51.8,30.12,NW,322,3.0,4.0,96,0.00,,,0.00,meteohub,2013-09-27 11:21:00,
2013-09-27 07:26:00,52.9,51.8,30.12,NW,322,3.0,4.0,96,0.00,,,0.00,meteohub,2013-09-27 11:26:00,
2013-09-27 07:31:00,52.9,51.8,30.12,NW,322,3.0,4.0,96,0.00,,,0.00,meteohub,2013-09-27 11:31:00,
2013-09-27 07:36:00,52.9,52.0,30.13,NW,309,2.0,4.0,97,0.00,,,0.00,meteohub,2013-09-27 11:36:00,
2013-09-27 07:42:00,52.9,52.0,30.13,NW,322,3.0,4.0,97,0.00,,,0.00,meteohub,2013-09-27 11:42:00,
2013-09-27 07:47:00,52.9,52.0,30.13,NW,323,4.0,4.0,97,0.00,,,0.00,meteohub,2013-09-27 11:47:00,
2013-09-27 07:52:00,52.9,52.0,30.13,NW,321,3.0,4.0,97,0.00,,,0.00,meteohub,2013-09-27 11:52:00,
2013-09-27 07:57:00,52.9,52.0,30.13,NW,321,3.0,4.0,97,0.00,,,0.00,meteohub,2013-09-27 11:57:00,
2013-09-27 08:02:00,52.9,52.0,30.14,NW,323,3.0,4.0,97,0.00,,,0.00,meteohub,2013-09-27 12:02:00,
2013-09-27 08:07:00,53.1,52.2,30.14,NW,321,3.0,4.0,97,0.00,,,0.00,meteohub,2013-09-27 12:07:00,
2013-09-27 08:12:00,53.1,52.2,30.14,NW,323,4.0,4.0,97,0.00,,,0.00,meteohub,2013-09-27 12:12:00,
2013-09-27 08:17:00,53.2,52.3,30.14,NW,323,3.0,4.0,97,0.00,,,0.00,meteohub,2013-09-27 12:17:00,
2013-09-27 08:22:00,53.4,52.5,30.14,NW,321,3.0,4.0,97,0.00,,,0.00,meteohub,2013-09-27 12:22:00,
2013-09-27 08:28:00,53.6,52.7,30.14,NW,321,3.0,4.0,97,0.00,,,0.00,meteohub,2013-09-27 12:28:00,
2013-09-27 08:33:00,53.8,52.9,30.14,NW,321,2.0,4.0,97,0.00,,,0.00,meteohub,2013-09-27 12:33:00,
2013-09-27 08:38:00,54.1,53.6,30.14,NW,321,2.0,4.0,98,0.00,,,0.00,meteohub,2013-09-27 12:38:00,
2013-09-27 08:43:00,54.3,53.8,30.15,NW,321,3.0,4.0,98,0.00,,,0.00,meteohub,2013-09-27 12:43:00,
2013-09-27 08:48:00,54.7,54.1,30.15,NW,321,3.0,4.0,98,0.00,,,0.00,meteohub,2013-09-27 12:48:00,
2013-09-27 08:54:00,55.0,54.5,30.15,NW,321,3.0,4.0,98,0.00,,,0.00,meteohub,2013-09-27 12:54:00,
2013-09-27 08:59:00,55.6,55.0,30.15,NW,321,2.0,4.0,98,0.00,,,0.00,meteohub,2013-09-27 12:59:00,
2013-09-27 09:04:00,56.5,55.9,30.15,NW,321,4.0,4.0,98,0.00,,,0.00,meteohub,2013-09-27 13:04:00,
2013-09-27 09:09:00,56.8,56.3,30.16,NW,318,3.0,4.0,98,0.00,,,0.00,meteohub,2013-09-27 13:09:00,
2013-09-27 09:14:00,57.4,56.8,30.16,NW,322,2.0,4.0,98,0.00,,,0.00,meteohub,2013-09-27 13:14:00,
2013-09-27 09:20:00,57.7,56.8,30.16,NW,322,2.0,4.0,97,0.00,,,0.00,meteohub,2013-09-27 13:20:00,
2013-09-27 09:25:00,57.9,57.0,30.16,NNW,327,2.0,4.0,97,0.00,,,0.00,meteohub,2013-09-27 13:25:00,
2013-09-27 09:30:00,58.8,57.9,30.16,NW,326,2.0,4.0,97,0.00,,,0.00,meteohub,2013-09-27 13:30:00,
2013-09-27 09:35:00,59.5,58.5,30.16,NW,317,2.0,3.0,96,0.00,,,0.00,meteohub,2013-09-27 13:35:00,
2013-09-27 09:41:00,60.1,58.6,30.16,NW,322,3.0,4.0,95,0.00,,,0.00,meteohub,2013-09-27 13:41:00,
2013-09-27 09:46:00,60.3,58.8,30.16,NW,322,2.0,4.0,95,0.00,,,0.00,meteohub,2013-09-27 13:46:00,
2013-09-27 09:51:00,60.6,58.8,30.16,NNW,328,2.0,4.0,94,0.00,,,0.00,meteohub,2013-09-27 13:51:00,
2013-09-27 09:56:00,61.2,59.4,30.16,NW,318,3.0,4.0,94,0.00,,,0.00,meteohub,2013-09-27 13:56:00,
2013-09-27 10:01:00,61.5,59.5,30.16,NW,324,0.0,5.0,93,0.00,,,0.00,meteohub,2013-09-27 14:01:00,
2013-09-27 10:06:00,62.1,59.4,30.16,NNW,329,3.0,5.0,91,0.00,,,0.00,meteohub,2013-09-27 14:06:00,
2013-09-27 10:12:00,62.4,59.4,30.17,North,350,1.0,6.0,90,0.00,,,0.00,meteohub,2013-09-27 14:12:00,
2013-09-27 10:17:00,62.8,59.5,30.17,WNW,298,0.0,6.0,89,0.00,,,0.00,meteohub,2013-09-27 14:17:00,
2013-09-27 10:22:00,62.8,58.8,30.17,NW,309,0.0,5.0,87,0.00,,,0.00,meteohub,2013-09-27 14:22:00,
2013-09-27 10:27:00,63.0,59.4,30.17,NW,313,3.0,4.0,88,0.00,,,0.00,meteohub,2013-09-27 14:27:00,
2013-09-27 10:32:00,63.5,59.5,30.17,NW,326,2.0,4.0,87,0.00,,,0.00,meteohub,2013-09-27 14:32:00,
2013-09-27 10:37:00,64.0,59.7,30.17,NW,311,1.0,5.0,86,0.00,,,0.00,meteohub,2013-09-27 14:37:00,
2013-09-27 10:42:00,64.6,59.7,30.17,NW,325,1.0,5.0,84,0.00,,,0.00,meteohub,2013-09-27 14:42:00,
2013-09-27 10:47:00,64.9,59.0,30.17,NW,315,3.0,5.0,81,0.00,,,0.00,meteohub,2013-09-27 14:47:00,
2013-09-27 10:52:00,64.9,59.0,30.17,ENE,74,1.0,5.0,81,0.00,,,0.00,meteohub,2013-09-27 14:52:00,
2013-09-27 10:57:00,65.5,59.2,30.17,NW,326,0.0,4.0,80,0.00,,,0.00,meteohub,2013-09-27 14:57:00,
2013-09-27 11:02:00,66.0,59.0,30.17,ESE,118,3.0,4.0,78,0.00,,,0.00,meteohub,2013-09-27 15:02:00,
2013-09-27 11:07:00,66.9,59.5,30.17,NNE,31,0.0,3.0,77,0.00,,,0.00,meteohub,2013-09-27 15:07:00,
2013-09-27 11:12:00,66.9,59.2,30.17,ESE,112,1.0,3.0,76,0.00,,,0.00,meteohub,2013-09-27 15:12:00,
2013-09-27 11:17:00,67.1,58.5,30.17,ESE,120,2.0,3.0,74,0.00,,,0.00,meteohub,2013-09-27 15:17:00,
2013-09-27 11:22:00,67.3,59.0,30.17,NW,323,2.0,3.0,75,0.00,,,0.00,meteohub,2013-09-27 15:22:00,
2013-09-27 11:27:00,66.9,58.8,30.17,NW,326,1.0,3.0,75,0.00,,,0.00,meteohub,2013-09-27 15:27:00,
2013-09-27 11:32:00,67.3,57.9,30.17,NW,314,1.0,3.0,72,0.00,,,0.00,meteohub,2013-09-27 15:32:00,
2013-09-27 11:37:00,67.1,57.0,30.17,WNW,288,1.0,4.0,70,0.00,,,0.00,meteohub,2013-09-27 15:37:00,
2013-09-27 11:42:00,67.3,57.6,30.17,North,5,0.0,4.0,71,0.00,,,0.00,meteohub,2013-09-27 15:42:00,
2013-09-27 11:47:00,67.5,57.0,30.17,NE,43,0.0,4.0,69,0.00,,,0.00,meteohub,2013-09-27 15:47:00,
2013-09-27 11:52:00,68.0,57.4,30.17,SE,138,0.0,3.0,69,0.00,,,0.00,meteohub,2013-09-27 15:52:00,
2013-09-27 11:57:00,68.7,57.4,30.17,NE,40,1.0,3.0,67,0.00,,,0.00,meteohub,2013-09-27 15:57:00,
2013-09-27 12:02:00,68.5,56.7,30.17,SE,129,1.0,4.0,66,0.00,,,0.00,meteohub,2013-09-27 16:02:00,
2013-09-27 12:07:00,68.9,56.3,30.17,SE,132,2.0,4.0,64,0.00,,,0.00,meteohub,2013-09-27 16:07:00,
2013-09-27 12:12:00,69.4,57.6,30.17,NW,315,1.0,4.0,66,0.00,,,0.00,meteohub,2013-09-27 16:12:00,
2013-09-27 12:17:00,69.1,58.1,30.17,West,273,0.0,4.0,68,0.00,,,0.00,meteohub,2013-09-27 16:17:00,
2013-09-27 12:22:00,69.4,57.6,30.17,NW,321,0.0,4.0,66,0.00,,,0.00,meteohub,2013-09-27 16:22:00,
2013-09-27 12:27:00,68.9,56.7,30.17,NW,320,1.0,4.0,65,0.00,,,0.00,meteohub,2013-09-27 16:27:00,
2013-09-27 12:32:00,68.0,56.7,30.17,WNW,289,0.0,4.0,67,0.00,,,0.00,meteohub,2013-09-27 16:32:00,
2013-09-27 12:37:00,68.2,57.6,30.17,South,175,0.0,4.0,69,0.00,,,0.00,meteohub,2013-09-27 16:37:00,
2013-09-27 12:42:00,68.5,56.3,30.17,ESE,112,0.0,4.0,65,0.00,,,0.00,meteohub,2013-09-27 16:42:00,
2013-09-27 12:47:00,68.7,56.8,30.17,SE,124,0.0,3.0,66,0.00,,,0.00,meteohub,2013-09-27 16:47:00,
2013-09-27 12:52:00,69.4,57.2,30.17,ESE,121,3.0,3.0,65,0.00,,,0.00,meteohub,2013-09-27 16:52:00,
2013-09-27 12:57:00,69.6,56.5,30.17,ESE,109,2.0,5.0,63,0.00,,,0.00,meteohub,2013-09-27 16:57:00,
2013-09-27 13:02:00,69.1,57.2,30.17,ESE,110,1.0,5.0,66,0.00,,,0.00,meteohub,2013-09-27 17:02:00,
2013-09-27 13:07:00,68.5,57.6,30.17,ESE,113,1.0,5.0,68,0.00,,,0.00,meteohub,2013-09-27 17:07:00,
2013-09-27 13:12:00,69.1,57.7,30.17,ESE,117,0.0,3.0,67,0.00,,,0.00,meteohub,2013-09-27 17:12:00,
2013-09-27 13:17:00,68.9,56.3,30.16,East,101,1.0,3.0,64,0.00,,,0.00,meteohub,2013-09-27 17:17:00,
2013-09-27 13:22:00,69.1,56.8,30.16,ESE,119,0.0,5.0,65,0.00,,,0.00,meteohub,2013-09-27 17:22:00,
2013-09-27 13:27:00,69.1,56.5,30.16,SE,134,0.0,5.0,64,0.00,,,0.00,meteohub,2013-09-27 17:27:00,
2013-09-27 13:29:00,69.3,56.5,30.15,NNE,32,0.0,5.0,64,0.00,,,0.00,meteohub,2013-09-27 17:29:00,
2013-09-27 13:34:00,69.1,55.9,30.15,ENE,60,2.0,5.0,63,0.00,,,0.00,meteohub,2013-09-27 17:34:00,
2013-09-27 13:40:00,68.7,56.5,30.15,ESE,103,0.0,3.0,65,0.00,,,0.00,meteohub,2013-09-27 17:40:00,
2013-09-27 13:45:00,69.8,56.1,30.15,NW,319,4.0,4.0,62,0.00,,,0.00,meteohub,2013-09-27 17:45:00,
2013-09-27 13:50:00,70.2,56.1,30.14,NW,323,0.0,5.0,61,0.00,,,0.00,meteohub,2013-09-27 17:50:00,
2013-09-27 13:55:00,70.7,56.1,30.14,East,88,0.0,5.0,60,0.00,,,0.00,meteohub,2013-09-27 17:55:00,
2013-09-27 14:00:00,70.5,55.6,30.14,West,261,0.0,4.0,59,0.00,,,0.00,meteohub,2013-09-27 18:00:00,
2013-09-27 14:05:00,70.2,56.1,30.14,South,178,1.0,3.0,61,0.00,,,0.00,meteohub,2013-09-27 18:05:00,
2013-09-27 14:10:00,70.5,56.8,30.14,SSE,152,3.0,3.0,62,0.00,,,0.00,meteohub,2013-09-27 18:10:00,
2013-09-27 14:16:00,70.7,56.1,30.14,ESE,119,0.0,3.0,60,0.00,,,0.00,meteohub,2013-09-27 18:16:00,
2013-09-27 14:21:00,70.2,56.5,30.14,SSE,164,0.0,3.0,62,0.00,,,0.00,meteohub,2013-09-27 18:21:00,
2013-09-27 14:26:00,69.4,56.7,30.14,SSE,164,0.0,3.0,64,0.00,,,0.00,meteohub,2013-09-27 18:26:00,
2013-09-27 14:31:00,69.4,57.2,30.13,South,182,0.0,1.0,65,0.00,,,0.00,meteohub,2013-09-27 18:31:00,
2013-09-27 14:36:00,70.2,57.9,30.13,SSW,203,1.0,0.0,65,0.00,,,0.00,meteohub,2013-09-27 18:36:00,
2013-09-27 14:42:00,70.9,57.2,30.13,NNW,347,2.0,2.0,62,0.00,,,0.00,meteohub,2013-09-27 18:42:00,
2013-09-27 14:47:00,70.9,56.3,30.13,NW,318,1.0,2.0,60,0.00,,,0.00,meteohub,2013-09-27 18:47:00,
2013-09-27 14:52:00,70.2,57.0,30.13,NW,318,0.0,3.0,63,0.00,,,0.00,meteohub,2013-09-27 18:52:00,
2013-09-27 14:57:00,70.3,57.6,30.13,NW,318,0.0,3.0,64,0.00,,,0.00,meteohub,2013-09-27 18:57:00,
2013-09-27 15:02:00,71.1,55.9,30.12,NW,312,1.0,5.0,59,0.00,,,0.00,meteohub,2013-09-27 19:02:00,
2013-09-27 15:07:00,71.1,55.6,30.12,SE,146,0.0,5.0,58,0.00,,,0.00,meteohub,2013-09-27 19:07:00,
2013-09-27 15:12:00,71.1,56.8,30.13,ESE,108,1.0,5.0,61,0.00,,,0.00,meteohub,2013-09-27 19:12:00,
2013-09-27 15:17:00,70.9,56.3,30.13,North,11,0.0,3.0,60,0.00,,,0.00,meteohub,2013-09-27 19:17:00,
2013-09-27 15:22:00,70.9,56.3,30.13,NNW,341,2.0,3.0,60,0.00,,,0.00,meteohub,2013-09-27 19:22:00,
2013-09-27 15:27:00,70.5,55.9,30.12,ESE,110,0.0,4.0,60,0.00,,,0.00,meteohub,2013-09-27 19:27:00,
2013-09-27 15:32:00,70.3,56.3,30.13,South,188,0.0,4.0,61,0.00,,,0.00,meteohub,2013-09-27 19:32:00,
2013-09-27 15:37:00,70.0,56.8,30.13,NW,311,0.0,3.0,63,0.00,,,0.00,meteohub,2013-09-27 19:37:00,
2013-09-27 15:42:00,69.6,56.8,30.13,NNW,327,2.0,3.0,64,0.00,,,0.00,meteohub,2013-09-27 19:42:00,
2013-09-27 15:47:00,69.4,57.2,30.13,NNW,331,0.0,3.0,65,0.00,,,0.00,meteohub,2013-09-27 19:47:00,
2013-09-27 15:52:00,69.4,57.2,30.13,SW,236,0.0,3.0,65,0.00,,,0.00,meteohub,2013-09-27 19:52:00,
2013-09-27 15:57:00,69.4,57.2,30.13,SSW,198,0.0,3.0,65,0.00,,,0.00,meteohub,2013-09-27 19:57:00,
2013-09-27 16:02:00,69.3,57.0,30.13,SSW,198,0.0,2.0,65,0.00,,,0.00,meteohub,2013-09-27 20:02:00,
2013-09-27 16:07:00,69.3,57.0,30.13,North,0,0.0,3.0,65,0.00,,,0.00,meteohub,2013-09-27 20:07:00,
2013-09-27 16:12:00,69.3,57.0,30.13,North,355,0.0,3.0,65,0.00,,,0.00,meteohub,2013-09-27 20:12:00,
2013-09-27 16:17:00,68.9,57.6,30.13,North,355,0.0,3.0,67,0.00,,,0.00,meteohub,2013-09-27 20:17:00,
2013-09-27 16:22:00,68.5,58.3,30.13,West,273,0.0,2.0,70,0.00,,,0.00,meteohub,2013-09-27 20:22:00,
2013-09-27 16:27:00,68.7,58.1,30.13,West,272,0.0,1.0,69,0.00,,,0.00,meteohub,2013-09-27 20:27:00,
2013-09-27 16:32:00,69.3,57.0,30.13,West,271,0.0,1.0,65,0.00,,,0.00,meteohub,2013-09-27 20:32:00,
2013-09-27 16:37:00,69.3,56.5,30.13,NNW,327,2.0,2.0,64,0.00,,,0.00,meteohub,2013-09-27 20:37:00,
2013-09-27 16:42:00,69.3,56.5,30.13,NNW,327,1.0,2.0,64,0.00,,,0.00,meteohub,2013-09-27 20:42:00,
2013-09-27 16:47:00,69.3,56.5,30.13,NNW,337,1.0,2.0,64,0.00,,,0.00,meteohub,2013-09-27 20:47:00,
2013-09-27 16:52:00,69.3,55.8,30.13,NW,315,1.0,3.0,62,0.00,,,0.00,meteohub,2013-09-27 20:52:00,
2013-09-27 16:57:00,69.1,55.9,30.14,NW,315,3.0,4.0,63,0.00,,,0.00,meteohub,2013-09-27 20:57:00,
2013-09-27 17:02:00,68.7,56.1,30.13,NW,315,1.0,4.0,64,0.00,,,0.00,meteohub,2013-09-27 21:02:00,
2013-09-27 17:07:00,68.5,55.9,30.13,NW,315,0.0,4.0,64,0.00,,,0.00,meteohub,2013-09-27 21:07:00,
2013-09-27 17:12:00,68.4,56.1,30.13,NW,315,0.0,3.0,65,0.00,,,0.00,meteohub,2013-09-27 21:12:00,
2013-09-27 17:17:00,68.4,56.5,30.14,NW,315,0.0,2.0,66,0.00,,,0.00,meteohub,2013-09-27 21:17:00,
2013-09-27 17:22:00,68.4,57.0,30.13,NW,315,0.0,1.0,67,0.00,,,0.00,meteohub,2013-09-27 21:22:00,
2013-09-27 17:27:00,68.2,56.8,30.13,NW,315,0.0,1.0,67,0.00,,,0.00,meteohub,2013-09-27 21:27:00,
2013-09-27 17:32:00,68.0,57.9,30.14,NW,315,0.0,0.0,70,0.00,,,0.00,meteohub,2013-09-27 21:32:00,
2013-09-27 17:37:00,67.8,57.2,30.14,NW,315,0.0,0.0,69,0.00,,,0.00,meteohub,2013-09-27 21:37:00,
2013-09-27 17:42:00,67.6,57.6,30.14,NW,315,0.0,0.0,70,0.00,,,0.00,meteohub,2013-09-27 21:42:00,
2013-09-27 17:47:00,67.6,58.3,30.14,NW,315,0.0,0.0,72,0.00,,,0.00,meteohub,2013-09-27 21:47:00,
2013-09-27 17:52:00,67.8,57.7,30.13,NNW,327,0.0,1.0,70,0.00,,,0.00,meteohub,2013-09-27 21:52:00,
2013-09-27 17:57:00,68.2,57.6,30.13,NW,323,0.0,2.0,69,0.00,,,0.00,meteohub,2013-09-27 21:57:00,
2013-09-27 18:02:00,68.2,57.6,30.14,NW,323,0.0,2.0,69,0.00,,,0.00,meteohub,2013-09-27 22:02:00,
2013-09-27 18:07:00,68.2,58.5,30.14,NW,323,0.0,0.0,71,0.00,,,0.00,meteohub,2013-09-27 22:07:00,
2013-09-27 18:12:00,67.8,58.1,30.14,NW,323,0.0,0.0,71,0.00,,,0.00,meteohub,2013-09-27 22:12:00,
2013-09-27 18:17:00,67.6,57.9,30.14,NW,323,0.0,0.0,71,0.00,,,0.00,meteohub,2013-09-27 22:17:00,
2013-09-27 18:22:00,67.5,58.1,30.14,NW,323,0.0,0.0,72,0.00,,,0.00,meteohub,2013-09-27 22:22:00,
2013-09-27 18:27:00,67.3,57.6,30.14,NW,323,0.0,0.0,71,0.00,,,0.00,meteohub,2013-09-27 22:27:00,
2013-09-27 18:32:00,67.3,57.9,30.14,NW,323,0.0,0.0,72,0.00,,,0.00,meteohub,2013-09-27 22:32:00,
2013-09-27 18:37:00,67.1,57.4,30.14,NW,323,0.0,0.0,71,0.00,,,0.00,meteohub,2013-09-27 22:37:00,
2013-09-27 18:42:00,67.1,57.4,30.14,NW,323,0.0,0.0,71,0.00,,,0.00,meteohub,2013-09-27 22:42:00,
2013-09-27 18:47:00,66.7,57.4,30.14,SW,219,0.0,0.0,72,0.00,,,0.00,meteohub,2013-09-27 22:47:00,
2013-09-27 18:52:00,66.6,57.6,30.14,SW,219,0.0,0.0,73,0.00,,,0.00,meteohub,2013-09-27 22:52:00,
2013-09-27 18:57:00,66.0,57.6,30.14,SW,219,0.0,0.0,74,0.00,,,0.00,meteohub,2013-09-27 22:57:00,
2013-09-27 19:02:00,65.5,57.7,30.14,SW,219,0.0,0.0,76,0.00,,,0.00,meteohub,2013-09-27 23:02:00,
2013-09-27 19:07:00,64.9,57.9,30.14,SW,219,0.0,0.0,78,0.00,,,0.00,meteohub,2013-09-27 23:07:00,
2013-09-27 19:12:00,64.2,57.6,30.14,SW,219,0.0,0.0,79,0.00,,,0.00,meteohub,2013-09-27 23:12:00,
2013-09-27 19:17:00,63.9,57.9,30.14,SW,219,0.0,0.0,81,0.00,,,0.00,meteohub,2013-09-27 23:17:00,
2013-09-27 19:22:00,63.3,57.0,30.15,SW,219,0.0,0.0,80,0.00,,,0.00,meteohub,2013-09-27 23:22:00,
2013-09-27 19:27:00,63.3,56.7,30.15,SW,219,0.0,0.0,79,0.00,,,0.00,meteohub,2013-09-27 23:27:00,
2013-09-27 19:32:00,63.1,56.5,30.14,SW,219,0.0,0.0,79,0.00,,,0.00,meteohub,2013-09-27 23:32:00,
2013-09-27 19:37:00,63.1,56.5,30.14,SW,219,0.0,0.0,79,0.00,,,0.00,meteohub,2013-09-27 23:37:00,
2013-09-27 19:42:00,63.0,57.0,30.14,SW,219,0.0,0.0,81,0.00,,,0.00,meteohub,2013-09-27 23:42:00,
2013-09-27 19:47:00,62.8,56.8,30.14,SW,219,0.0,0.0,81,0.00,,,0.00,meteohub,2013-09-27 23:47:00,
2013-09-27 19:52:00,62.6,56.7,30.15,SW,219,0.0,0.0,81,0.00,,,0.00,meteohub,2013-09-27 23:52:00,
2013-09-27 19:57:00,62.4,56.5,30.15,SW,219,0.0,0.0,81,0.00,,,0.00,meteohub,2013-09-27 23:57:00,
2013-09-27 20:02:00,62.2,56.3,30.15,SW,219,0.0,0.0,81,0.00,,,0.00,meteohub,2013-09-28 00:02:00,
2013-09-27 20:07:00,62.2,56.7,30.15,SW,219,0.0,0.0,82,0.00,,,0.00,meteohub,2013-09-28 00:07:00,
2013-09-27 20:12:00,62.1,57.2,30.15,SW,219,0.0,0.0,84,0.00,,,0.00,meteohub,2013-09-28 00:12:00,
2013-09-27 20:17:00,61.9,57.4,30.16,SW,219,0.0,0.0,85,0.00,,,0.00,meteohub,2013-09-28 00:17:00,
2013-09-27 20:22:00,61.7,57.2,30.16,SW,219,0.0,0.0,85,0.00,,,0.00,meteohub,2013-09-28 00:22:00,
2013-09-27 20:27:00,61.5,56.3,30.16,SW,219,0.0,0.0,83,0.00,,,0.00,meteohub,2013-09-28 00:27:00,
2013-09-27 20:32:00,61.5,57.4,30.16,SW,219,0.0,0.0,86,0.00,,,0.00,meteohub,2013-09-28 00:32:00,
2013-09-27 20:37:00,61.3,56.5,30.16,SW,219,0.0,0.0,84,0.00,,,0.00,meteohub,2013-09-28 00:37:00,
2013-09-27 20:42:00,61.3,56.5,30.16,SW,219,0.0,0.0,84,0.00,,,0.00,meteohub,2013-09-28 00:42:00,
2013-09-27 20:47:00,61.3,56.1,30.17,SW,219,0.0,0.0,83,0.00,,,0.00,meteohub,2013-09-28 00:47:00,
2013-09-27 20:52:00,61.3,56.5,30.17,NW,308,0.0,0.0,84,0.00,,,0.00,meteohub,2013-09-28 00:52:00,
2013-09-27 20:57:00,61.2,57.0,30.17,NW,308,0.0,0.0,86,0.00,,,0.00,meteohub,2013-09-28 00:57:00,
2013-09-27 21:02:00,61.2,57.0,30.17,NW,308,0.0,0.0,86,0.00,,,0.00,meteohub,2013-09-28 01:02:00,
2013-09-27 21:07:00,61.0,56.8,30.17,NW,308,0.0,0.0,86,0.00,,,0.00,meteohub,2013-09-28 01:07:00,
2013-09-27 21:12:00,61.0,56.8,30.17,NW,308,0.0,0.0,86,0.00,,,0.00,meteohub,2013-09-28 01:12:00,
2013-09-27 21:17:00,61.0,56.8,30.17,NW,308,0.0,0.0,86,0.00,,,0.00,meteohub,2013-09-28 01:17:00,
2013-09-27 21:22:00,60.8,56.7,30.18,NW,308,0.0,0.0,86,0.00,,,0.00,meteohub,2013-09-28 01:22:00,
2013-09-27 21:27:00,60.8,56.3,30.18,NW,308,0.0,0.0,85,0.00,,,0.00,meteohub,2013-09-28 01:27:00,
2013-09-27 21:32:00,60.6,56.7,30.18,NW,308,0.0,0.0,87,0.00,,,0.00,meteohub,2013-09-28 01:32:00,
2013-09-27 21:37:00,60.6,56.5,30.18,NW,308,0.0,0.0,86,0.00,,,0.00,meteohub,2013-09-28 01:37:00,
2013-09-27 21:42:00,60.4,56.3,30.18,NW,308,0.0,0.0,86,0.00,,,0.00,meteohub,2013-09-28 01:42:00,
2013-09-27 21:47:00,60.4,56.3,30.18,NW,308,0.0,0.0,86,0.00,,,0.00,meteohub,2013-09-28 01:47:00,
2013-09-27 21:52:00,60.4,56.3,30.19,NW,308,0.0,0.0,86,0.00,,,0.00,meteohub,2013-09-28 01:52:00,
2013-09-27 21:57:00,60.3,56.1,30.19,NW,308,0.0,0.0,86,0.00,,,0.00,meteohub,2013-09-28 01:57:00,
2013-09-27 22:02:00,60.3,56.1,30.19,NW,308,0.0,0.0,86,0.00,,,0.00,meteohub,2013-09-28 02:02:00,
2013-09-27 22:07:00,60.3,56.1,30.19,NW,308,0.0,0.0,86,0.00,,,0.00,meteohub,2013-09-28 02:07:00,
2013-09-27 22:12:00,60.1,55.9,30.19,NW,308,0.0,0.0,86,0.00,,,0.00,meteohub,2013-09-28 02:12:00,
2013-09-27 22:17:00,60.1,55.9,30.19,NW,308,0.0,0.0,86,0.00,,,0.00,meteohub,2013-09-28 02:17:00,
2013-09-27 22:22:00,59.9,55.8,30.19,NW,308,0.0,0.0,86,0.00,,,0.00,meteohub,2013-09-28 02:22:00,
2013-09-27 22:27:00,59.9,55.8,30.19,NW,308,0.0,0.0,86,0.00,,,0.00,meteohub,2013-09-28 02:27:00,
2013-09-27 22:32:00,59.7,55.8,30.20,NW,308,0.0,0.0,87,0.00,,,0.00,meteohub,2013-09-28 02:32:00,
2013-09-27 22:37:00,59.5,55.6,30.20,NW,308,0.0,0.0,87,0.00,,,0.00,meteohub,2013-09-28 02:37:00,
2013-09-27 22:42:00,59.4,55.8,30.20,NW,308,0.0,0.0,88,0.00,,,0.00,meteohub,2013-09-28 02:42:00,
2013-09-27 22:47:00,59.2,55.6,30.20,NW,308,0.0,0.0,88,0.00,,,0.00,meteohub,2013-09-28 02:47:00,
2013-09-27 22:52:00,59.0,55.8,30.20,NW,308,0.0,0.0,89,0.00,,,0.00,meteohub,2013-09-28 02:52:00,
2013-09-27 22:57:00,58.6,55.4,30.20,NW,308,0.0,0.0,89,0.00,,,0.00,meteohub,2013-09-28 02:57:00,
2013-09-27 23:02:00,58.6,55.4,30.20,NW,308,0.0,0.0,89,0.00,,,0.00,meteohub,2013-09-28 03:02:00,
2013-09-27 23:07:00,58.5,55.2,30.20,NW,308,0.0,0.0,89,0.00,,,0.00,meteohub,2013-09-28 03:07:00,
2013-09-27 23:12:00,58.3,55.0,30.20,NW,308,0.0,0.0,89,0.00,,,0.00,meteohub,2013-09-28 03:12:00,
2013-09-27 23:17:00,58.3,55.0,30.20,NW,308,0.0,0.0,89,0.00,,,0.00,meteohub,2013-09-28 03:17:00,
2013-09-27 23:22:00,57.9,54.7,30.20,NW,308,0.0,0.0,89,0.00,,,0.00,meteohub,2013-09-28 03:22:00,
2013-09-27 23:27:00,57.9,54.3,30.20,NW,308,0.0,0.0,88,0.00,,,0.00,meteohub,2013-09-28 03:27:00,
2013-09-27 23:32:00,57.7,54.1,30.20,NW,308,0.0,0.0,88,0.00,,,0.00,meteohub,2013-09-28 03:32:00,
2013-09-27 23:37:00,57.7,54.5,30.20,NW,308,0.0,0.0,89,0.00,,,0.00,meteohub,2013-09-28 03:37:00,
2013-09-27 23:42:00,57.7,54.1,30.20,NW,308,0.0,0.0,88,0.00,,,0.00,meteohub,2013-09-28 03:42:00,
2013-09-27 23:47:00,57.7,54.1,30.20,NW,308,0.0,0.0,88,0.00,,,0.00,meteohub,2013-09-28 03:47:00,
2013-09-27 23:52:00,57.7,54.5,30.20,NW,308,0.0,0.0,89,0.00,,,0.00,meteohub,2013-09-28 03:52:00,
2013-09-27 23:57:00,57.7,54.5,30.20,NW,308,0.0,0.0,89,0.00,,,0.00,meteohub,2013-09-28 03:57:00,